Terminal Aerodrome Forecast
Issued by NWS

Home | Current Version | Previous Version | Text Only | Print | Product List | Glossary On
Versions: 1 2 3 4 5 6 7 8 9 10 11 12 13 14 15 16 17 18 19 20 21 22 23 24 25
000
FTUS42 KCAE 141120
TAFCUB
TAF
KCUB 141120Z 1412/1512 06007KT P6SM BKN150
     FM141500 06010KT P6SM BKN100
     FM142000 08006KT P6SM OVC080
     FM150700 07005KT P6SM OVC025=

USA.gov is the U.S. government's official web portal to all federal, state and local government web resources and services.